Time;durP1;ratioP1;P1;durP2;ratioP2;P2;SDS_P1;SDS_P2;PMS_P1;PMS_P2;Temp;Humidity;BMP_temperature;BMP_pressure;BME280_temperature;BME280_humidity;BME280_pressure;Samples;Min_cycle;Max_cycle;Signal;HPM_P1;HPM_P2
2023/11/23 00:02:29;;;;;;;10.67;9.70;;;6.80;40.90;;;;;;10269098;28;20576;-73
2023/11/23 00:07:33;;;;;;;11.47;10.27;;;6.70;41.10;;;;;;10270284;28;20610;-73
2023/11/23 00:12:37;;;;;;;9.93;9.03;;;6.70;41.10;;;;;;10269063;28;20259;-74
2023/11/23 00:17:40;;;;;;;11.30;10.20;;;6.70;41.00;;;;;;10269292;28;20240;-73
2023/11/23 00:22:44;;;;;;;11.00;10.00;;;6.70;41.10;;;;;;10261207;28;20282;-74
2023/11/23 00:27:48;;;;;;;10.97;9.87;;;6.70;40.90;;;;;;10270187;28;20235;-73
2023/11/23 00:32:52;;;;;;;10.83;9.73;;;6.70;40.60;;;;;;10271181;28;20256;-73
2023/11/23 00:37:55;;;;;;;10.43;9.43;;;6.60;40.60;;;;;;10270228;28;20322;-74
2023/11/23 00:43:00;;;;;;;11.17;10.07;;;6.60;40.80;;;;;;10269658;28;20246;-73
2023/11/23 00:48:03;;;;;;;11.23;10.13;;;6.50;40.70;;;;;;10269285;28;20231;-72
2023/11/23 00:53:06;;;;;;;11.17;10.17;;;6.50;40.90;;;;;;10260984;28;20318;-73
2023/11/23 00:58:11;;;;;;;11.63;10.43;;;6.50;40.90;;;;;;10270692;28;20323;-72
2023/11/23 01:03:15;;;;;;;12.43;11.13;;;6.50;40.90;;;;;;10263593;28;20274;-72
2023/11/23 01:08:18;;;;;;;11.10;10.00;;;6.50;40.90;;;;;;10263363;28;20733;-72
2023/11/23 01:13:22;;;;;;;11.40;10.30;;;6.40;40.90;;;;;;10265163;28;20232;-73
2023/11/23 01:18:25;;;;;;;11.77;10.67;;;6.40;40.90;;;;;;10271702;28;20240;-73
2023/11/23 01:23:29;;;;;;;10.60;9.60;;;6.40;41.10;;;;;;10263411;28;20263;-73
2023/11/23 01:28:34;;;;;;;11.87;10.77;;;6.30;41.20;;;;;;10269152;28;20926;-72
2023/11/23 01:33:37;;;;;;;11.43;10.33;;;6.40;41.20;;;;;;10269580;28;20239;-72
2023/11/23 01:38:40;;;;;;;10.63;9.63;;;6.40;41.20;;;;;;10277417;28;20346;-72
2023/11/23 01:43:46;;;;;;;11.43;10.33;;;6.40;41.10;;;;;;10272344;28;20282;-73
2023/11/23 01:48:51;;;;;;;11.67;10.53;;;6.40;40.90;;;;;;10273097;28;20236;-72
2023/11/23 01:53:55;;;;;;;11.33;10.07;;;6.40;41.10;;;;;;10273981;28;20232;-72
2023/11/23 01:59:00;;;;;;;12.07;10.70;;;6.30;41.10;;;;;;10273813;28;20243;-72
2023/11/23 02:04:03;;;;;;;11.73;10.53;;;6.30;41.10;;;;;;10271151;28;20291;-73
2023/11/23 02:09:08;;;;;;;12.07;10.97;;;6.30;41.10;;;;;;10264510;28;20235;-72
2023/11/23 02:14:12;;;;;;;12.63;11.33;;;6.20;41.20;;;;;;10274011;28;20232;-72
2023/11/23 02:19:16;;;;;;;12.13;10.83;;;6.30;41.20;;;;;;10276236;28;20318;-72
2023/11/23 02:24:21;;;;;;;11.27;10.20;;;6.20;41.20;;;;;;10269659;28;20231;-72
2023/11/23 02:29:24;;;;;;;12.23;11.10;;;6.10;41.20;;;;;;10268179;28;20234;-72
2023/11/23 02:34:29;;;;;;;12.43;10.90;;;6.10;41.30;;;;;;10273919;28;20239;-72
2023/11/23 02:39:34;;;;;;;11.83;10.63;;;6.00;41.20;;;;;;10269369;28;20737;-72
2023/11/23 02:44:37;;;;;;;11.80;10.70;;;5.90;41.40;;;;;;10275365;28;20232;-72
2023/11/23 02:49:40;;;;;;;11.93;10.73;;;5.90;41.50;;;;;;10275787;28;20231;-72
2023/11/23 02:54:45;;;;;;;12.47;11.27;;;5.90;41.40;;;;;;10271304;28;20231;-73
2023/11/23 02:59:48;;;;;;;11.40;10.30;;;5.80;41.40;;;;;;10261456;28;20684;-72
2023/11/23 03:04:53;;;;;;;12.47;11.23;;;5.80;41.60;;;;;;10270511;28;20278;-72
2023/11/23 03:09:58;;;;;;;10.90;9.90;;;5.90;41.60;;;;;;10258530;28;20231;-73
2023/11/23 03:15:02;;;;;;;11.20;10.20;;;5.90;41.50;;;;;;10265604;28;20224;-72
2023/11/23 03:20:07;;;;;;;12.37;11.13;;;5.90;41.50;;;;;;10267478;28;20224;-72
2023/11/23 03:25:11;;;;;;;12.47;11.27;;;6.00;41.50;;;;;;10272456;28;20225;-73
2023/11/23 03:30:15;;;;;;;11.97;10.80;;;5.90;41.30;;;;;;10272264;28;20320;-73
2023/11/23 03:35:19;;;;;;;12.77;11.57;;;5.90;41.40;;;;;;10270496;28;20278;-72
2023/11/23 03:40:23;;;;;;;12.33;11.13;;;5.90;41.30;;;;;;10267145;28;20366;-72
2023/11/23 03:45:26;;;;;;;12.90;11.67;;;5.80;41.10;;;;;;10271046;28;20252;-72
2023/11/23 03:50:30;;;;;;;12.57;11.30;;;5.70;41.10;;;;;;10272064;28;20737;-72
2023/11/23 03:55:34;;;;;;;13.20;12.00;;;5.60;41.20;;;;;;10266996;28;20227;-72
2023/11/23 04:00:38;;;;;;;12.60;11.37;;;5.50;41.30;;;;;;10263157;28;20234;-72
2023/11/23 04:05:41;;;;;;;13.57;12.27;;;5.40;41.70;;;;;;10265285;28;20306;-72
2023/11/23 04:10:46;;;;;;;12.67;11.37;;;5.40;41.70;;;;;;10268160;28;20890;-72
2023/11/23 04:15:49;;;;;;;14.43;13.03;;;5.50;41.70;;;;;;10262621;28;20246;-72
2023/11/23 04:20:52;;;;;;;13.03;11.77;;;5.60;41.70;;;;;;10266353;28;20624;-72
2023/11/23 04:25:57;;;;;;;18.17;16.30;;;5.60;41.60;;;;;;10269640;28;20226;-72
2023/11/23 04:31:00;;;;;;;15.27;13.77;;;5.60;41.30;;;;;;10264417;28;20227;-73
2023/11/23 04:36:04;;;;;;;14.10;12.77;;;5.60;41.20;;;;;;10267628;28;20230;-73
2023/11/23 04:41:09;;;;;;;13.60;12.30;;;5.40;41.10;;;;;;10262350;28;20232;-73
2023/11/23 04:46:12;;;;;;;13.80;12.47;;;5.30;41.30;;;;;;10270530;28;20718;-73
2023/11/23 04:51:16;;;;;;;14.07;12.67;;;5.10;41.40;;;;;;10268418;28;20223;-73
2023/11/23 04:56:22;;;;;;;13.50;12.20;;;5.00;41.60;;;;;;10270800;28;20231;-73
2023/11/23 05:01:26;;;;;;;13.37;12.07;;;4.90;41.80;;;;;;10259326;28;20568;-72
2023/11/23 05:06:29;;;;;;;13.53;12.23;;;4.90;41.90;;;;;;10269382;28;20226;-73
2023/11/23 05:11:34;;;;;;;13.10;11.80;;;4.80;41.90;;;;;;10270909;28;20228;-74
2023/11/23 05:16:37;;;;;;;13.60;12.30;;;4.80;42.00;;;;;;10277645;28;20916;-73
2023/11/23 05:21:40;;;;;;;13.50;12.13;;;4.80;42.00;;;;;;10270804;28;20318;-73
2023/11/23 05:26:45;;;;;;;12.47;11.17;;;4.70;42.10;;;;;;10271983;28;20234;-74
2023/11/23 05:31:48;;;;;;;13.07;11.80;;;4.70;42.20;;;;;;10272730;28;20244;-73
2023/11/23 05:36:51;;;;;;;13.63;12.30;;;4.60;42.40;;;;;;10270513;28;20327;-73
2023/11/23 05:41:56;;;;;;;13.27;11.97;;;4.60;42.40;;;;;;10259905;28;20731;-73
2023/11/23 05:46:59;;;;;;;13.13;11.83;;;4.60;42.40;;;;;;10262890;28;20231;-73
2023/11/23 05:52:02;;;;;;;14.67;13.27;;;4.60;42.40;;;;;;10268905;28;20707;-73
2023/11/23 05:57:07;;;;;;;14.13;12.83;;;4.60;42.40;;;;;;10273965;28;20239;-74
2023/11/23 06:02:10;;;;;;;14.53;13.23;;;4.50;42.40;;;;;;10296602;28;20290;-73
2023/11/23 06:07:15;;;;;;;12.53;11.33;;;4.50;42.50;;;;;;10296268;28;20283;-74
2023/11/23 06:12:20;;;;;;;12.63;11.53;;;4.50;42.60;;;;;;10301833;28;20249;-74
2023/11/23 06:17:23;;;;;;;12.37;11.27;;;4.60;43.00;;;;;;10294138;28;20239;-73
2023/11/23 06:22:26;;;;;;;13.13;11.43;;;4.60;43.00;;;;;;10292114;28;20324;-73
2023/11/23 06:27:32;;;;;;;12.40;11.30;;;4.60;42.90;;;;;;10283391;28;20229;-73
2023/11/23 06:32:36;;;;;;;12.23;11.03;;;4.70;43.10;;;;;;10283742;28;20256;-73
2023/11/23 06:37:39;;;;;;;12.53;11.33;;;4.70;42.90;;;;;;10287791;28;20278;-73
2023/11/23 06:42:44;;;;;;;12.97;11.67;;;4.70;43.00;;;;;;10287214;28;20322;-73
2023/11/23 06:47:47;;;;;;;11.67;10.67;;;4.70;43.10;;;;;;10280977;28;20963;-73
2023/11/23 06:52:50;;;;;;;11.47;10.37;;;4.70;43.20;;;;;;10276799;28;20801;-73
2023/11/23 06:57:55;;;;;;;11.33;10.33;;;4.80;43.10;;;;;;10281011;28;20579;-74
2023/11/23 07:03:01;;;;;;;11.60;10.17;;;4.70;43.00;;;;;;10279868;28;20650;-73
2023/11/23 07:08:05;;;;;;;12.37;11.17;;;4.80;42.90;;;;;;10282040;28;20230;-73
2023/11/23 07:13:11;;;;;;;11.63;10.53;;;4.90;43.00;;;;;;10264686;28;20235;-73
2023/11/23 07:18:14;;;;;;;11.27;10.07;;;4.90;43.00;;;;;;10270891;28;20753;-74
2023/11/23 07:23:21;;;;;;;11.53;10.40;;;4.90;42.90;;;;;;10267496;28;20307;-73
2023/11/23 07:28:27;;;;;;;10.63;9.63;;;4.90;43.00;;;;;;10278394;28;20231;-74
2023/11/23 07:33:34;;;;;;;11.93;10.83;;;4.90;43.30;;;;;;10275435;28;20293;-75
2023/11/23 07:38:37;;;;;;;12.37;11.20;;;4.90;43.40;;;;;;10275181;28;20235;-76
2023/11/23 07:43:42;;;;;;;12.63;11.43;;;5.00;43.60;;;;;;10275671;28;20240;-75
2023/11/23 07:48:50;;;;;;;11.03;10.03;;;5.10;43.80;;;;;;10273055;28;20227;-76
2023/11/23 07:53:53;;;;;;;11.70;10.60;;;5.20;43.80;;;;;;10276488;28;20260;-76
2023/11/23 07:58:58;;;;;;;11.80;10.70;;;5.40;43.90;;;;;;10268202;28;20227;-75
2023/11/23 08:04:02;;;;;;;10.30;9.33;;;5.50;44.70;;;;;;10271797;28;20234;-75
2023/11/23 08:09:06;;;;;;;9.60;8.80;;;5.70;44.00;;;;;;10272907;28;20264;-75
2023/11/23 08:14:12;;;;;;;9.67;8.87;;;5.90;43.60;;;;;;10268549;28;20232;-75
2023/11/23 08:19:16;;;;;;;9.87;8.97;;;6.10;43.60;;;;;;10269090;28;20609;-75
2023/11/23 08:24:19;;;;;;;9.63;8.80;;;6.30;43.50;;;;;;10262734;28;20232;-76
2023/11/23 08:29:24;;;;;;;9.60;8.67;;;6.40;43.70;;;;;;10266985;28;20224;-76
2023/11/23 08:34:27;;;;;;;10.37;9.37;;;6.50;43.40;;;;;;10275555;28;20239;-76
2023/11/23 08:39:30;;;;;;;10.10;9.13;;;6.60;43.20;;;;;;10276167;28;20260;-76
2023/11/23 08:44:35;;;;;;;9.47;8.60;;;6.70;42.90;;;;;;10278361;28;20236;-76
2023/11/23 08:49:39;;;;;;;9.63;8.77;;;6.80;42.90;;;;;;10275711;28;20311;-76
2023/11/23 08:54:42;;;;;;;10.50;9.50;;;6.90;42.80;;;;;;10273213;28;20237;-75
2023/11/23 08:59:47;;;;;;;10.30;9.37;;;7.00;42.90;;;;;;10272698;28;20250;-75
2023/11/23 09:04:51;;;;;;;10.80;9.43;;;7.10;42.70;;;;;;10273293;28;20227;-75
2023/11/23 09:09:56;;;;;;;9.50;8.70;;;7.20;42.70;;;;;;10274868;28;20772;-75
2023/11/23 09:15:01;;;;;;;9.63;8.73;;;7.30;42.60;;;;;;10273655;28;20910;-75
2023/11/23 09:20:08;;;;;;;8.93;8.13;;;7.40;42.50;;;;;;10276008;28;20327;-74
2023/11/23 09:25:13;;;;;;;9.13;8.23;;;7.50;42.30;;;;;;10270127;28;20250;-74
2023/11/23 09:30:17;;;;;;;8.93;8.13;;;7.50;42.10;;;;;;10273680;28;20275;-74
2023/11/23 09:35:21;;;;;;;8.80;8.10;;;7.50;41.90;;;;;;10272796;28;21081;-74
2023/11/23 09:40:24;;;;;;;9.20;8.40;;;7.60;42.30;;;;;;10269268;28;20698;-74
2023/11/23 09:45:30;;;;;;;8.70;7.90;;;7.70;42.30;;;;;;10276807;28;20359;-74
2023/11/23 09:50:33;;;;;;;8.33;7.63;;;7.80;41.80;;;;;;10265856;28;20232;-74
2023/11/23 09:55:43;;;;;;;8.13;7.33;;;8.00;42.00;;;;;;10269024;28;20564;-74
2023/11/23 10:00:48;;;;;;;7.87;7.17;;;8.10;41.60;;;;;;10263714;28;20238;-72
2023/11/23 10:05:51;;;;;;;7.80;7.20;;;8.10;41.10;;;;;;10266460;28;20259;-74
2023/11/23 10:10:56;;;;;;;8.27;7.50;;;8.20;41.40;;;;;;10278301;28;20242;-74
2023/11/23 10:16:04;;;;;;;7.70;7.10;;;8.30;41.10;;;;;;10273570;28;20845;-74
2023/11/23 10:21:09;;;;;;;6.77;6.17;;;8.40;40.90;;;;;;10269268;28;20240;-74
2023/11/23 10:26:13;;;;;;;6.73;6.13;;;8.40;40.90;;;;;;10280398;28;20235;-74
2023/11/23 10:31:18;;;;;;;6.33;5.83;;;8.50;40.90;;;;;;10287941;28;20239;-74
2023/11/23 10:36:25;;;;;;;6.67;6.10;;;8.50;40.30;;;;;;10277787;28;20227;-75
2023/11/23 10:41:29;;;;;;;6.33;5.83;;;8.60;39.70;;;;;;10280429;28;20321;-74
2023/11/23 10:46:38;;;;;;;6.90;6.30;;;8.70;41.20;;;;;;10296772;28;20314;-74
2023/11/23 10:51:43;;;;;;;7.73;7.13;;;8.80;40.90;;;;;;10287710;28;20243;-74
2023/11/23 10:56:47;;;;;;;7.73;7.00;;;9.10;41.20;;;;;;10277379;28;20233;-74
2023/11/23 11:01:55;;;;;;;6.70;6.10;;;9.30;40.80;;;;;;10274237;28;20779;-74
2023/11/23 11:06:59;;;;;;;6.03;5.50;;;9.40;40.40;;;;;;10271599;28;20230;-74
2023/11/23 11:12:05;;;;;;;6.80;6.20;;;9.50;40.50;;;;;;10261690;28;20239;-73
2023/11/23 11:17:10;;;;;;;6.23;5.63;;;9.70;40.60;;;;;;10264064;28;20773;-74
2023/11/23 11:22:13;;;;;;;6.00;5.40;;;9.90;40.80;;;;;;10266904;28;21130;-75
2023/11/23 11:27:20;;;;;;;5.57;5.17;;;10.00;39.60;;;;;;10274169;28;20343;-75
2023/11/23 11:32:32;;;;;;;5.30;4.90;;;10.10;38.50;;;;;;10277488;28;20232;-74
2023/11/23 11:37:36;;;;;;;5.90;5.40;;;10.20;39.00;;;;;;10260411;28;20808;-74
2023/11/23 11:42:40;;;;;;;5.50;5.00;;;10.30;39.40;;;;;;10266111;28;20223;-74
2023/11/23 11:47:45;;;;;;;6.07;5.47;;;10.40;38.90;;;;;;10264393;28;20322;-74
2023/11/23 11:52:50;;;;;;;7.73;6.97;;;10.50;38.90;;;;;;10260124;28;20791;-74
2023/11/23 11:57:53;;;;;;;7.13;6.13;;;10.60;38.70;;;;;;10259223;28;20232;-75
2023/11/23 12:02:58;;;;;;;6.63;6.03;;;10.60;39.00;;;;;;10263624;28;20232;-74
2023/11/23 12:08:01;;;;;;;7.17;6.47;;;10.60;38.20;;;;;;10267261;28;20310;-75
2023/11/23 12:13:04;;;;;;;6.30;5.70;;;10.60;38.60;;;;;;10265326;28;20346;-75
2023/11/23 12:18:11;;;;;;;6.47;5.87;;;10.60;38.20;;;;;;10268223;28;20235;-74
2023/11/23 12:23:15;;;;;;;6.33;5.73;;;10.70;38.20;;;;;;10271756;28;20758;-74
2023/11/23 12:28:20;;;;;;;6.33;5.77;;;10.70;38.50;;;;;;10271039;28;20231;-73
2023/11/23 12:33:25;;;;;;;5.83;5.23;;;10.70;38.20;;;;;;10249289;28;20236;-74
2023/11/23 12:38:28;;;;;;;6.40;5.80;;;10.70;38.00;;;;;;10251881;28;20639;-74
2023/11/23 12:43:32;;;;;;;5.97;5.47;;;10.60;38.40;;;;;;10253077;28;20753;-76
2023/11/23 12:48:36;;;;;;;5.83;5.33;;;10.60;38.00;;;;;;10255730;28;20322;-75
2023/11/23 12:53:40;;;;;;;5.77;5.27;;;10.60;38.00;;;;;;10249584;28;21138;-74
2023/11/23 12:58:43;;;;;;;5.07;4.67;;;10.60;38.40;;;;;;10247902;28;20242;-75
2023/11/23 13:03:48;;;;;;;5.80;5.30;;;10.60;38.50;;;;;;10253331;28;21183;-76
2023/11/23 13:08:51;;;;;;;6.30;5.70;;;10.60;38.30;;;;;;10255026;28;20228;-75
2023/11/23 13:13:55;;;;;;;6.17;5.67;;;10.70;38.80;;;;;;10252425;28;20700;-74
2023/11/23 13:18:59;;;;;;;6.37;5.80;;;10.70;38.70;;;;;;10265163;28;20654;-73
2023/11/23 13:24:22;;;;;;;5.90;5.40;;;10.70;38.30;;;;;;10272277;28;20883;-74
2023/11/23 13:29:26;;;;;;;5.00;4.60;;;10.70;38.70;;;;;;10274706;28;20718;-75
2023/11/23 13:34:31;;;;;;;5.30;4.80;;;10.80;38.80;;;;;;10280528;28;20677;-75
2023/11/23 13:39:36;;;;;;;5.80;5.23;;;10.70;38.70;;;;;;10274765;28;20719;-75
2023/11/23 13:44:39;;;;;;;4.80;4.40;;;10.70;39.10;;;;;;10269508;28;20286;-74
2023/11/23 13:49:44;;;;;;;3.93;3.63;;;10.70;39.10;;;;;;10272004;28;20591;-74
2023/11/23 13:54:48;;;;;;;4.17;3.77;;;10.70;39.10;;;;;;10276721;28;20249;-74
2023/11/23 13:59:51;;;;;;;4.20;3.80;;;10.80;39.60;;;;;;10266992;28;20239;-76
2023/11/23 14:04:56;;;;;;;3.53;3.23;;;10.80;39.20;;;;;;10288976;28;20219;-75
2023/11/23 14:10:00;;;;;;;3.43;3.13;;;10.90;38.90;;;;;;10279516;28;20226;-73
2023/11/23 14:15:04;;;;;;;3.47;3.17;;;10.80;38.90;;;;;;10271904;28;20226;-73
2023/11/23 14:20:09;;;;;;;3.70;3.40;;;10.80;39.20;;;;;;10267288;28;20227;-74
2023/11/23 14:25:16;;;;;;;3.27;3.00;;;10.80;38.90;;;;;;10271791;28;20223;-75
2023/11/23 14:30:21;;;;;;;2.90;2.70;;;10.80;39.30;;;;;;10271508;28;20259;-74
2023/11/23 14:35:26;;;;;;;3.30;2.40;;;10.80;39.20;;;;;;10272080;28;20231;-74
2023/11/23 14:40:29;;;;;;;3.00;2.80;;;10.80;39.10;;;;;;10275604;28;20700;-75
2023/11/23 14:45:33;;;;;;;4.20;2.83;;;10.80;39.30;;;;;;10268664;28;20242;-74
2023/11/23 14:50:39;;;;;;;3.10;2.90;;;10.80;39.30;;;;;;10273985;28;20247;-74
2023/11/23 14:55:42;;;;;;;3.47;3.17;;;10.80;39.20;;;;;;10266627;28;20278;-74
2023/11/23 15:00:45;;;;;;;3.43;3.13;;;10.80;39.30;;;;;;10268321;28;20702;-76
2023/11/23 15:05:50;;;;;;;3.20;2.90;;;10.80;39.00;;;;;;10269237;28;20222;-75
2023/11/23 15:10:53;;;;;;;3.20;2.90;;;10.70;38.90;;;;;;10271326;28;20302;-75
2023/11/23 15:15:57;;;;;;;4.27;3.00;;;10.70;39.10;;;;;;10268615;28;20228;-75
2023/11/23 15:21:01;;;;;;;3.60;3.30;;;10.70;39.10;;;;;;10268217;28;20238;-75
2023/11/23 15:26:05;;;;;;;4.20;3.80;;;10.70;38.70;;;;;;10276942;28;20220;-75
2023/11/23 15:31:10;;;;;;;3.63;3.33;;;10.70;38.90;;;;;;10250564;28;20220;-75
2023/11/23 15:36:15;;;;;;;3.43;3.13;;;10.70;38.80;;;;;;10247778;28;20228;-75
2023/11/23 15:41:19;;;;;;;4.70;4.30;;;10.60;38.60;;;;;;10250491;28;20240;-75
2023/11/23 15:46:25;;;;;;;4.57;4.17;;;10.70;38.70;;;;;;10245266;28;20235;-75
2023/11/23 15:51:31;;;;;;;4.37;3.97;;;10.70;38.70;;;;;;10262077;28;20231;-75
2023/11/23 15:56:35;;;;;;;3.97;3.67;;;10.60;38.50;;;;;;10255897;28;22080;-75
2023/11/23 16:01:39;;;;;;;5.37;4.60;;;10.50;38.70;;;;;;10258420;28;20708;-75
2023/11/23 16:06:45;;;;;;;4.70;4.30;;;10.50;38.80;;;;;;10256138;28;20239;-75
2023/11/23 16:11:49;;;;;;;4.53;3.90;;;10.50;38.40;;;;;;10263108;28;20831;-75
2023/11/23 16:16:52;;;;;;;5.10;4.60;;;10.50;38.70;;;;;;10258702;28;20227;-75
2023/11/23 16:21:57;;;;;;;6.33;5.57;;;10.40;38.70;;;;;;10258092;28;20228;-75
2023/11/23 16:27:00;;;;;;;6.40;5.80;;;10.40;38.70;;;;;;10260948;28;20232;-75
2023/11/23 16:32:03;;;;;;;5.63;5.03;;;10.30;38.90;;;;;;10259219;28;20215;-78
2023/11/23 16:37:09;;;;;;;5.03;4.63;;;10.40;39.10;;;;;;10250039;28;20224;-75
2023/11/23 16:42:14;;;;;;;5.30;4.80;;;10.30;38.70;;;;;;10260710;28;20228;-75
2023/11/23 16:47:18;;;;;;;5.67;4.73;;;10.30;39.00;;;;;;10269039;28;20232;-75
2023/11/23 16:52:22;;;;;;;5.83;4.67;;;10.30;38.90;;;;;;10261520;28;20268;-75
2023/11/23 16:57:25;;;;;;;4.57;4.17;;;10.30;38.80;;;;;;10266280;28;20259;-75
2023/11/23 17:02:29;;;;;;;4.67;4.27;;;10.30;39.10;;;;;;10268487;28;20261;-75
2023/11/23 17:07:33;;;;;;;4.90;4.50;;;10.30;39.30;;;;;;10265067;28;20310;-75
2023/11/23 17:12:37;;;;;;;4.53;4.17;;;10.30;39.20;;;;;;10270379;28;20785;-75
2023/11/23 17:17:44;;;;;;;4.00;3.70;;;10.30;39.20;;;;;;10264719;28;20241;-75
2023/11/23 17:22:49;;;;;;;5.00;4.50;;;10.30;39.20;;;;;;10269617;28;20648;-75
2023/11/23 17:27:54;;;;;;;3.77;3.37;;;10.30;39.00;;;;;;10272329;28;20235;-75
2023/11/23 17:32:57;;;;;;;5.90;3.30;;;10.40;39.20;;;;;;10269420;28;20232;-75
2023/11/23 17:38:02;;;;;;;3.97;3.63;;;10.30;39.10;;;;;;10267529;28;20239;-75
2023/11/23 17:43:05;;;;;;;6.87;6.17;;;10.30;39.20;;;;;;10261810;28;20230;-75
2023/11/23 17:48:08;;;;;;;4.70;4.30;;;10.30;39.30;;;;;;10271037;28;20777;-75
2023/11/23 17:53:13;;;;;;;5.37;4.87;;;10.30;39.30;;;;;;10265497;28;20228;-75
2023/11/23 17:58:16;;;;;;;5.30;4.80;;;10.30;39.20;;;;;;10273739;28;20235;-75
2023/11/23 18:03:19;;;;;;;7.13;6.03;;;10.30;39.30;;;;;;10271783;28;20814;-75
2023/11/23 18:08:24;;;;;;;6.90;6.30;;;10.30;39.30;;;;;;10261726;28;20236;-75
2023/11/23 18:13:28;;;;;;;7.40;6.60;;;10.30;39.10;;;;;;10272913;28;20709;-75
2023/11/23 18:18:32;;;;;;;7.67;6.93;;;10.20;39.30;;;;;;10263659;28;20239;-76
2023/11/23 18:23:36;;;;;;;6.90;6.20;;;10.20;39.50;;;;;;10272739;28;20251;-77
2023/11/23 18:28:39;;;;;;;7.63;6.93;;;10.10;39.40;;;;;;10265830;28;20219;-75
2023/11/23 18:33:43;;;;;;;9.20;7.93;;;10.00;39.60;;;;;;10264649;28;21671;-75
2023/11/23 18:38:47;;;;;;;10.27;8.80;;;10.00;39.70;;;;;;10265129;28;20257;-75
2023/11/23 18:43:51;;;;;;;10.30;8.53;;;10.00;39.90;;;;;;10268482;28;20240;-75
2023/11/23 18:48:55;;;;;;;6.63;5.87;;;9.90;40.80;;;;;;10269025;28;20246;-75
2023/11/23 18:54:00;;;;;;;4.90;4.47;;;9.90;40.80;;;;;;10266402;28;20243;-76
2023/11/23 18:59:04;;;;;;;4.60;4.20;;;9.90;40.80;;;;;;10264707;28;20232;-77
2023/11/23 19:04:07;;;;;;;3.30;3.00;;;9.90;40.80;;;;;;10271399;28;20231;-75
2023/11/23 19:09:14;;;;;;;2.70;2.50;;;9.90;40.80;;;;;;10265091;28;20770;-75
2023/11/23 19:14:18;;;;;;;1.90;1.80;;;9.90;40.90;;;;;;10259412;28;20235;-76
2023/11/23 19:19:23;;;;;;;1.70;1.60;;;9.90;40.80;;;;;;10262497;28;20231;-75
2023/11/23 19:24:28;;;;;;;1.30;1.20;;;10.00;39.90;;;;;;10257144;28;20280;-76
2023/11/23 19:29:32;;;;;;;1.50;1.20;;;10.00;40.10;;;;;;10263567;28;20314;-76
2023/11/23 19:34:48;;;;;;;0.90;0.90;;;10.00;39.90;;;;;;10272906;28;20250;-76
2023/11/23 19:39:54;;;;;;;0.80;0.80;;;10.10;40.00;;;;;;10267481;28;20231;-75
2023/11/23 19:44:58;;;;;;;0.90;0.90;;;10.10;40.70;;;;;;10268067;28;20231;-76
2023/11/23 19:50:02;;;;;;;0.80;0.80;;;10.10;40.00;;;;;;10246833;28;20278;-76
2023/11/23 19:55:08;;;;;;;1.13;1.03;;;10.10;40.00;;;;;;10253393;28;20337;-76
2023/11/23 20:00:13;;;;;;;1.13;1.13;;;10.10;40.00;;;;;;10250346;28;20235;-76
2023/11/23 20:05:17;;;;;;;1.70;1.60;;;10.10;40.00;;;;;;10251891;28;20850;-76
2023/11/23 20:10:22;;;;;;;1.80;1.70;;;10.20;40.10;;;;;;10264862;28;20306;-76
2023/11/23 20:15:25;;;;;;;2.27;2.07;;;10.10;40.00;;;;;;10265613;28;20223;-76
2023/11/23 20:20:30;;;;;;;2.10;1.90;;;10.10;40.00;;;;;;10270462;28;21036;-76
2023/11/23 20:25:35;;;;;;;2.17;1.97;;;10.00;39.90;;;;;;10262618;28;20640;-76
2023/11/23 20:30:38;;;;;;;2.20;2.10;;;10.00;40.00;;;;;;10255945;28;20330;-76
2023/11/23 20:35:41;;;;;;;3.93;2.20;;;9.90;40.80;;;;;;10264777;28;20227;-76
2023/11/23 20:40:46;;;;;;;3.83;2.50;;;9.90;40.80;;;;;;10269588;28;20946;-76
2023/11/23 20:45:49;;;;;;;3.30;3.00;;;9.80;41.00;;;;;;10263649;28;20644;-76
2023/11/23 20:50:53;;;;;;;3.10;2.90;;;9.80;41.00;;;;;;10259881;28;20307;-75
2023/11/23 20:55:59;;;;;;;3.10;2.90;;;9.70;41.20;;;;;;10255106;28;20215;-76
2023/11/23 21:01:05;;;;;;;3.30;3.00;;;9.60;41.50;;;;;;10261016;28;20228;-76
2023/11/23 21:06:16;;;;;;;3.40;3.10;;;9.60;41.50;;;;;;10271348;28;20863;-76
2023/11/23 21:11:22;;;;;;;4.23;3.17;;;9.60;41.70;;;;;;10261359;28;20758;-76
2023/11/23 21:16:25;;;;;;;3.50;3.27;;;9.50;41.90;;;;;;10258292;28;20253;-76
2023/11/23 21:21:30;;;;;;;3.23;3.03;;;9.40;41.80;;;;;;10260886;28;20232;-75
2023/11/23 21:26:34;;;;;;;3.77;3.47;;;9.40;42.00;;;;;;10263365;28;20220;-75
2023/11/23 21:31:37;;;;;;;3.90;3.50;;;9.40;42.20;;;;;;10266135;28;20391;-75
2023/11/23 21:36:41;;;;;;;4.03;3.70;;;9.40;42.20;;;;;;10257509;28;20635;-75
2023/11/23 21:41:46;;;;;;;3.50;3.20;;;9.40;42.30;;;;;;10267810;28;20231;-76
2023/11/23 21:46:53;;;;;;;3.63;3.33;;;9.40;42.40;;;;;;10265025;28;20781;-76
2023/11/23 21:51:56;;;;;;;3.77;3.47;;;9.30;42.50;;;;;;10262464;28;20232;-76
2023/11/23 21:57:00;;;;;;;4.40;3.33;;;9.30;42.40;;;;;;10266772;28;20743;-76
2023/11/23 22:02:04;;;;;;;3.70;3.40;;;9.30;42.60;;;;;;10267069;28;20737;-76
2023/11/23 22:07:08;;;;;;;3.77;3.37;;;9.40;42.50;;;;;;10268667;28;20228;-76
2023/11/23 22:12:12;;;;;;;3.30;3.10;;;9.30;42.60;;;;;;10269305;28;20228;-76
2023/11/23 22:17:17;;;;;;;2.87;2.67;;;9.30;42.90;;;;;;10271217;28;20224;-75
2023/11/23 22:22:21;;;;;;;3.40;3.20;;;9.30;42.80;;;;;;10268208;28;20268;-75
2023/11/23 22:27:27;;;;;;;3.57;3.27;;;9.40;42.90;;;;;;10258062;28;20235;-76
2023/11/23 22:32:32;;;;;;;4.17;3.77;;;9.40;43.10;;;;;;10272393;28;20250;-75
2023/11/23 22:37:35;;;;;;;4.30;4.00;;;9.40;43.00;;;;;;10269747;28;20229;-76
2023/11/23 22:42:41;;;;;;;3.93;3.63;;;9.40;43.80;;;;;;10270349;28;21124;-76
2023/11/23 22:47:45;;;;;;;4.60;4.07;;;9.40;43.00;;;;;;10257361;28;20306;-76
2023/11/23 22:52:48;;;;;;;4.70;4.30;;;9.40;42.80;;;;;;10264252;28;20876;-76
2023/11/23 22:57:53;;;;;;;4.23;3.83;;;9.50;43.10;;;;;;10255874;28;20231;-75
2023/11/23 23:02:57;;;;;;;4.77;4.37;;;9.50;43.00;;;;;;10263961;28;20238;-74
2023/11/23 23:08:02;;;;;;;5.57;4.63;;;9.60;43.10;;;;;;10267550;28;20228;-74
2023/11/23 23:13:07;;;;;;;5.13;4.20;;;9.60;42.90;;;;;;10264117;28;20883;-75
2023/11/23 23:18:11;;;;;;;5.27;4.20;;;9.70;43.10;;;;;;10258611;28;20236;-75
2023/11/23 23:23:15;;;;;;;4.70;4.30;;;9.70;42.90;;;;;;10270307;28;20286;-75
2023/11/23 23:28:19;;;;;;;4.97;4.47;;;9.80;42.90;;;;;;10263906;28;20228;-75
2023/11/23 23:33:35;;;;;;;4.67;4.27;;;9.80;42.90;;;;;;10260244;28;20238;-75
2023/11/23 23:38:38;;;;;;;4.33;3.93;;;9.80;42.90;;;;;;10257622;28;20232;-75
2023/11/23 23:43:45;;;;;;;4.37;4.07;;;9.80;42.90;;;;;;10260259;28;20359;-75
2023/11/23 23:48:48;;;;;;;4.40;4.00;;;9.80;43.10;;;;;;10257132;28;20298;-75
2023/11/23 23:53:53;;;;;;;4.50;4.10;;;9.90;43.00;;;;;;10260006;28;20236;-75
2023/11/23 23:58:58;;;;;;;4.70;4.30;;;9.90;43.10;;;;;;10255686;28;20219;-74
